This is the latest recevied weather packets stored in our database for station/object W7OWO-1. If no packets are shown the sender has not sent any weather packets the latest 10 day(s).
| Time | Temp. | Humidity | Pressure | Rain* | Wind** | Luminosity | Snow |
|---|---|---|---|---|---|---|---|
| 1777133343 | 15° C | 45% | 1011.8 hPa | 0 mm | - | - | - |
| 1777132803 | 14.44° C | 46% | 1011.8 hPa | 0 mm | - | - | - |
| 1777130283 | 13.89° C | 48% | 1012 hPa | 0 mm | - | - | - |
| 1777129203 | 12.78° C | 52% | 1012 hPa | 0 mm | - | - | - |
| 1777126143 | 11.11° C | 54% | 1012 hPa | 0 mm | - | - | - |
| 1777122543 | 7.22° C | 70% | 1011.8 hPa | 0 mm | - | - | - |
| 1777122003 | 7.22° C | 74% | 1011.8 hPa | 0 mm | - | - | - |
| 1777120024 | 7.78° C | 68% | 1011.8 hPa | 0 mm | - | - | - |
| 1777119483 | 7.78° C | 68% | 1011.9 hPa | 0 mm | - | - | - |
| 1777118944 | 7.78° C | 66% | 1011.9 hPa | 0 mm | - | - | - |
| 1777118403 | 7.78° C | 69% | 1012 hPa | 0 mm | - | - | - |
| 1777114443 | 7.78° C | 69% | 1012 hPa | 0 mm | - | - | - |
| 1777111743 | 8.89° C | 63% | 1012.2 hPa | 0 mm | - | - | - |
| 1777105623 | 9.44° C | 56% | 1012.6 hPa | 0 mm | - | - | - |
| 1777100405 | 12.22° C | 46% | 1012.9 hPa | 0 mm | - | - | - |
| 1777097883 | 11.67° C | 48% | 1013.2 hPa | 0 mm | - | - | - |
| 1777097343 | 11.11° C | 52% | 1013.2 hPa | 0 mm | - | - | - |
| 1777096443 | 10° C | 54% | 1013.4 hPa | 0 mm | - | - | - |
| 1777092844 | 12.78° C | 48% | 1013.3 hPa | 0 mm | - | - | - |
| 1777084563 | 16.67° C | 37% | 1013.1 hPa | 0 mm | - | - | - |
| 1777077903 | 19.44° C | 40% | 1013.4 hPa | 0 mm | - | - | - |
| 1777074303 | 20° C | 38% | 1013.8 hPa | 0 mm | - | - | - |
| 1777071603 | 20° C | 36% | 1014.3 hPa | 0 mm | - | - | - |
| 1777070163 | 20.56° C | 38% | 1014.7 hPa | 0 mm | - | - | - |
| 1777064943 | 19.44° C | 38% | 1015.8 hPa | 0 mm | - | - | - |
* Rain latest hour (hover to see other rain measurements)
** Current wind speed in m/s (hover to see current wind gust speed)